Time;durP1;ratioP1;P1;durP2;ratioP2;P2;SDS_P1;SDS_P2;PMS_P1;PMS_P2;Temp;Humidity;BMP_temperature;BMP_pressure;BME280_temperature;BME280_humidity;BME280_pressure;Samples;Min_cycle;Max_cycle;Signal;HPM_P1;HPM_P2
2022/03/06 07:32:02;;;;;;;2.27;2.07;;;;;;;-3.08;99.62;93819.16;2607925;54;20675;-82
2022/03/06 07:34:31;;;;;;;2.27;2.17;;;;;;;-3.31;98.77;93733.09;2621650;54;20482;-83
2022/03/06 07:37:00;;;;;;;3.83;2.87;;;;;;;-2.34;98.65;93900.41;2622676;54;20426;-81
2022/03/06 07:39:28;;;;;;;1.20;1.20;;;;;;;-2.27;98.51;93888.38;2621759;46;20195;-79
2022/03/06 07:41:57;;;;;;;1.30;1.30;;;;;;;-0.72;98.87;94088.81;2621475;46;20157;-77
2022/03/06 07:44:26;;;;;;;2.67;2.47;;;;;;;-1.13;98.75;94090.25;2621490;54;20201;-81
2022/03/06 07:47:05;;;;;;;2.55;2.35;;;;;;;-3.03;98.52;93814.63;2622620;54;20418;-80
2022/03/06 07:49:36;;;;;;;2.83;2.60;;;;;;;-2.82;98.60;93813.94;2621282;38;20219;-83
2022/03/06 07:52:06;;;;;;;2.30;2.10;;;;;;;-2.15;98.54;93894.00;2623627;54;20443;-76
2022/03/06 07:54:34;;;;;;;0.77;0.77;;;;;;;-0.49;98.61;94121.53;2621241;46;20249;-75
2022/03/06 07:57:21;;;;;;;3.87;3.00;;;;;;;-0.72;98.08;94115.88;2619166;46;20164;-76
2022/03/06 07:59:50;;;;;;;3.67;3.47;;;;;;;-3.12;97.96;93779.38;2621129;54;20154;-77
2022/03/06 08:02:19;;;;;;;5.60;4.47;;;;;;;-1.67;98.23;93995.69;2620343;47;20161;-78
2022/03/06 08:04:51;;;;;;;2.70;2.60;;;;;;;-2.46;99.03;93860.03;2621237;47;20175;-77
2022/03/06 08:07:19;;;;;;;3.47;3.10;;;;;;;-2.34;99.85;93921.84;2621347;47;20156;-77
2022/03/06 08:09:50;;;;;;;4.03;3.73;;;;;;;-0.93;100.00;94097.13;2620693;54;20167;-76
2022/03/06 08:12:25;;;;;;;2.60;2.40;;;;;;;-1.45;100.00;94016.59;2619690;46;20165;-77
2022/03/06 08:14:57;;;;;;;5.10;3.83;;;;;;;-2.67;99.76;93841.31;2617452;54;20180;-76
2022/03/06 08:17:29;;;;;;;4.63;3.50;;;;;;;-1.73;99.29;93982.13;2617542;47;20208;-80
2022/03/06 08:20:03;;;;;;;4.20;3.97;;;;;;;-1.07;99.58;94080.25;2617269;47;20173;-77
2022/03/06 08:22:33;;;;;;;3.07;2.83;;;;;;;-0.77;99.85;94114.88;2616986;47;20173;-77
2022/03/06 08:25:02;;;;;;;3.80;3.50;;;;;;;-1.40;99.48;94039.84;2617839;47;20213;-76
2022/03/06 08:27:32;;;;;;;1.93;1.87;;;;;;;-0.89;99.17;94102.97;2617290;47;20169;-77
2022/03/06 08:30:00;;;;;;;3.57;2.83;;;;;;;-0.78;99.33;94129.38;2617272;47;20176;-75
2022/03/06 08:32:46;;;;;;;4.83;4.43;;;;;;;-0.79;99.34;94125.13;2617725;54;20192;-79
2022/03/06 08:35:18;;;;;;;1.10;1.10;;;;;;;-1.59;99.20;93983.06;2617445;47;20177;-77
2022/03/06 08:37:56;;;;;;;;;;;;;;;;;;;;;
2022/03/06 08:40:25;;;;;;;2.40;2.20;;;;;;;-0.76;99.08;94096.13;2617644;54;20800;-77
2022/03/06 08:42:54;;;;;;;3.33;3.13;;;;;;;-0.76;99.50;94102.44;2617388;52;20166;-75
2022/03/06 08:45:23;;;;;;;4.77;4.30;;;;;;;-0.80;99.57;94099.38;2617710;39;20560;-77
2022/03/06 08:47:52;;;;;;;6.03;3.40;;;;;;;-0.77;99.52;94083.56;2617354;47;20176;-77
2022/03/06 08:50:23;;;;;;;9.63;6.73;;;;;;;-1.33;99.74;94002.78;2616824;47;20204;-77
2022/03/06 08:52:52;;;;;;;5.63;4.40;;;;;;;-0.80;100.00;94085.47;2617471;54;20169;-76
2022/03/06 08:55:21;;;;;;;2.33;2.23;;;;;;;-0.88;100.00;94082.19;2617321;47;20240;-76
2022/03/06 08:57:49;;;;;;;3.00;2.77;;;;;;;-1.10;100.00;94050.16;2617201;54;20800;-76
2022/03/06 09:00:19;;;;;;;3.90;3.60;;;;;;;-146.23;100.00;72967.59;2614880;46;20197;-77
2022/03/06 09:02:47;;;;;;;1.47;1.47;;;;;;;-146.23;100.00;72967.59;2614971;54;20189;-76
2022/03/06 09:05:16;;;;;;;4.23;3.93;;;;;;;-146.23;100.00;72967.59;2615668;54;20208;-76
2022/03/06 09:07:53;;;;;;;5.17;4.33;;;;;;;-146.23;100.00;72967.59;2616044;39;20894;-75
2022/03/06 09:10:22;;;;;;;4.60;4.07;;;;;;;-146.23;100.00;72967.59;2616427;46;20181;-76
2022/03/06 09:12:51;;;;;;;4.73;3.90;;;;;;;-146.23;100.00;72967.59;2616327;54;20785;-76
2022/03/06 09:15:20;;;;;;;7.33;5.27;;;;;;;-146.23;100.00;72967.59;2617516;47;20294;-75
2022/03/06 09:17:48;;;;;;;4.73;4.37;;;;;;;-146.23;100.00;72967.59;2617560;54;20146;-76
2022/03/06 09:20:17;;;;;;;0.87;0.87;;;;;;;-146.23;100.00;72967.59;2617516;54;20173;-76
2022/03/06 09:22:48;;;;;;;1.40;1.40;;;;;;;-146.23;100.00;72967.59;2616206;47;20176;-76
2022/03/06 09:25:17;;;;;;;4.83;4.43;;;;;;;-146.23;100.00;72967.59;2616625;54;20181;-75
2022/03/06 09:27:46;;;;;;;4.97;4.50;;;;;;;-146.23;100.00;72967.59;2617213;54;20159;-78
2022/03/06 09:30:20;;;;;;;4.50;2.33;;;;;;;-146.23;100.00;72967.59;2617120;47;20196;-75
2022/03/06 09:32:58;;;;;;;7.20;5.32;;;;;;;-146.23;100.00;72967.59;2616491;46;20872;-80
2022/03/06 09:35:27;;;;;;;9.07;7.10;;;;;;;-146.23;100.00;72967.59;2617697;54;20220;-79
2022/03/06 09:38:09;;;;;;;;;;;;;;;;;;;;;
2022/03/06 09:40:40;;;;;;;10.87;6.87;;;;;;;-146.23;100.00;72967.59;2617627;54;20213;-79
2022/03/06 09:43:16;;;;;;;4.07;2.07;;;;;;;-146.23;100.00;72967.59;2617412;47;20188;-81
2022/03/06 09:45:52;;;;;;;4.60;4.30;;;;;;;-146.23;100.00;72967.59;2617529;47;20172;-86
2022/03/06 09:48:31;;;;;;;;;;;;;;;;;;;;;
2022/03/06 09:51:03;;;;;;;0.83;0.83;;;;;;;-146.23;100.00;72967.59;2619974;54;20166;-81
2022/03/06 09:53:35;;;;;;;4.93;4.30;;;;;;;-146.23;100.00;72967.59;2617141;47;20182;-81
2022/03/06 09:56:04;;;;;;;8.10;6.70;;;;;;;-146.23;100.00;72967.59;2618243;47;20696;-78
2022/03/06 09:58:32;;;;;;;5.40;4.17;;;;;;;-146.23;100.00;72967.59;2618054;54;20169;-79
2022/03/06 10:01:01;;;;;;;1.77;1.63;;;;;;;-146.23;100.00;72967.59;2617450;54;20153;-77
2022/03/06 10:03:44;;;;;;;3.30;2.97;;;;;;;-146.23;100.00;72967.59;2616722;47;20256;-87
2022/03/06 10:06:13;;;;;;;6.03;4.70;;;;;;;-146.23;100.00;72967.59;2617720;47;20192;-83
2022/03/06 10:08:45;;;;;;;4.17;3.80;;;;;;;-146.23;100.00;72967.59;2616201;47;20677;-81
2022/03/06 10:11:16;;;;;;;6.97;5.17;;;;;;;-146.23;100.00;72967.59;2617356;54;20146;-78
2022/03/06 10:13:55;;;;;;;7.40;6.70;;;;;;;-146.23;100.00;72967.59;2617548;47;20153;-83
2022/03/06 10:16:24;;;;;;;7.60;4.87;;;;;;;-146.23;100.00;72967.59;2617684;54;20186;-80
2022/03/06 10:18:55;;;;;;;9.00;8.10;;;;;;;-146.23;100.00;72967.59;2617599;47;20168;-85
2022/03/06 10:21:26;;;;;;;4.30;3.77;;;;;;;-146.23;100.00;72967.59;2618446;39;20765;-84
2022/03/06 10:24:31;;;;;;;8.63;6.77;;;;;;;-146.23;100.00;72967.59;2617097;54;20436;-85
2022/03/06 10:27:00;;;;;;;5.90;4.93;;;;;;;-146.23;100.00;72967.59;2617146;54;20183;-81
2022/03/06 10:29:33;;;;;;;3.23;3.03;;;;;;;-146.23;100.00;72967.59;2616991;47;20170;-84
2022/03/06 10:32:15;;;;;;;4.83;3.23;;;;;;;-146.23;100.00;72967.59;2617203;47;20200;-84
2022/03/06 10:34:44;;;;;;;8.13;5.67;;;;;;;-146.23;100.00;72967.59;2616956;47;20158;-81
2022/03/06 10:37:15;;;;;;;6.50;5.27;;;;;;;-146.23;100.00;72967.59;2617223;47;20162;-81
2022/03/06 10:39:56;;;;;;;4.77;4.30;;;;;;;-146.23;100.00;72967.59;2617281;47;20200;-83
2022/03/06 10:42:25;;;;;;;6.60;5.50;;;;;;;-146.23;100.00;72967.59;2617508;47;20186;-83
2022/03/06 10:44:54;;;;;;;6.17;4.70;;;;;;;-146.23;100.00;72967.59;2616807;47;20167;-82
2022/03/06 10:47:23;;;;;;;3.70;3.40;;;;;;;-146.23;100.00;72967.59;2617230;54;20193;-84
2022/03/06 10:50:15;;;;;;;5.47;4.80;;;;;;;-146.23;100.00;72967.59;2617713;54;20162;-82
2022/03/06 10:52:44;;;;;;;1.23;1.23;;;;;;;-146.23;100.00;72967.59;2618004;39;20551;-83
2022/03/06 10:55:27;;;;;;;14.80;9.47;;;;;;;-146.23;100.00;72967.59;2617362;54;20146;-82
2022/03/06 10:57:58;;;;;;;6.10;4.97;;;;;;;-146.23;100.00;72967.59;2617235;47;20166;-84
2022/03/06 11:00:28;;;;;;;6.47;5.80;;;;;;;-146.23;100.00;72967.59;2617102;47;20695;-84
2022/03/06 11:02:59;;;;;;;4.33;3.80;;;;;;;-146.23;100.00;72967.59;2617567;47;20165;-83
2022/03/06 11:05:37;;;;;;;5.30;3.83;;;;;;;-146.23;100.00;72967.59;2618894;54;20153;-87
2022/03/06 11:08:09;;;;;;;5.47;4.97;;;;;;;-146.23;100.00;72967.59;2620346;47;20186;-86
2022/03/06 11:10:42;;;;;;;5.60;4.43;;;;;;;-146.23;100.00;72967.59;2620651;54;20193;-85
2022/03/06 11:13:32;;;;;;;1.43;1.40;;;;;;;-146.23;100.00;72967.59;2621367;54;20150;-86
2022/03/06 11:16:27;;;;;;;3.10;2.53;;;;;;;-146.23;100.00;72967.59;2623297;47;20172;-84
2022/03/06 11:28:21;;;;;;;;;;;;;;;;;;;;;
2022/03/06 11:34:04;;;;;;;2.27;2.10;;;;;;;-146.23;100.00;72967.59;2627704;47;20162;-87
2022/03/06 12:20:56;;;;;;;0.97;0.97;;;;;;;-146.23;100.00;72967.59;2626994;54;20238;-86
2022/03/06 12:26:52;;;;;;;2.40;2.30;;;;;;;-146.23;100.00;72967.59;2625461;47;20180;-86
2022/03/06 12:29:59;;;;;;;2.37;2.00;;;;;;;-146.23;100.00;72967.59;2625810;46;20162;-85
2022/03/06 12:32:48;;;;;;;1.90;1.73;;;;;;;-146.23;100.00;72967.59;2624730;47;20173;-86
2022/03/06 12:35:19;;;;;;;3.67;2.97;;;;;;;-146.23;100.00;72967.59;2625047;54;20145;-86
2022/03/06 12:38:04;;;;;;;2.03;1.60;;;;;;;-146.23;100.00;72967.59;2625605;47;20169;-85
2022/03/06 12:40:35;;;;;;;5.27;3.43;;;;;;;-146.23;100.00;72967.59;2627004;46;20149;-86
2022/03/06 12:43:06;;;;;;;2.10;1.57;;;;;;;-146.23;100.00;72967.59;2627171;46;20168;-87
2022/03/06 12:46:06;;;;;;;2.43;2.23;;;;;;;-146.23;100.00;72967.59;2625452;46;20161;-87
2022/03/06 16:05:34;;;;;;;2.37;1.77;;;;;;;-146.23;100.00;72967.59;2621248;54;20245;-85
2022/03/06 16:08:06;;;;;;;1.07;1.07;;;;;;;-146.23;100.00;72967.59;2621616;47;20279;-84
